Ana Sayfa
METAR-TAF:

METAR-TAF

Havaalanları :

Princeton, İngiliz Kolombiyası, Kanada

Enlem: 49-28N, Boylam: 120-31W, yükseklik: 700 m

Güncel hava durumu gözlemi

Rapor saat 20:00 UTC de 44 dakika önce yapıldı.
Rüzgar güneydan 4 kt, güneydoğu ve batı arasında değişken
Sıcaklık 14°C
Nem 58%
Basınç 1006 hPa
Görüş mesafesi: 24.1 km
3100 ft yükseklikte az bulutlu
4800 ft yükseklikte parçalı bulutlu
6000 ft yükseklikte parçalı çok bulutlu
8500 ft yükseklikte çok bulutlu
hafif yağmur

METAR: CYDC 202000Z 18004KT 140V270 15SM -RA FEW031 SCT048 BKN060 OVC085 14/06 A2972 RMK SC1SC3SC2AC2 SLP062 DENSITY ALT 3100FT

Saat: 13:44 (20:44 UTC)


TAF: eksik

4.000'den fazla havaalanı için hava durumu gözlemleri ve tahminleri (METAR ve TAF raporları).

Kullanılabilir istasyonlar harita üzerinde sarı ve kırmızı noktalarla gösterilir.

İstasyonun adını görmek için fareyi noktanın üzerinde gezdirin.

Sonrasında hava gözlem ve tahminlerini görmek için tıklayın.

Haritayı değiştirmek için: yaklaştırmak için siyah artı işaretli yeşil düğmeye ve uzaklaştırmak için de eksi işaretli düğmeye hızla tıklayın; bitişik haritalar için yeşil okları kullanın.


METAR-TAF: